sensor_id;sensor_type;location;lat;lon;timestamp;pressure;altitude;pressure_sealevel;temperature;humidity
30338;BME280;17143;51.888;5.408;2023-02-03T00:07:25;102297.66;;;9.34;100.00
30338;BME280;17143;51.888;5.408;2023-02-03T00:22:28;102327.28;;;9.36;100.00
30338;BME280;17143;51.888;5.408;2023-02-03T00:37:30;102339.00;;;9.31;100.00
30338;BME280;17143;51.888;5.408;2023-02-03T00:52:32;102353.28;;;9.36;100.00
30338;BME280;17143;51.888;5.408;2023-02-03T01:07:34;102341.84;;;9.44;100.00
30338;BME280;17143;51.888;5.408;2023-02-03T01:22:36;102295.28;;;9.47;100.00
30338;BME280;17143;51.888;5.408;2023-02-03T01:37:38;102295.28;;;9.47;100.00
30338;BME280;17143;51.888;5.408;2023-02-03T01:52:42;102257.69;;;9.43;100.00
30338;BME280;17143;51.888;5.408;2023-02-03T02:07:45;102284.63;;;9.44;100.00
30338;BME280;17143;51.888;5.408;2023-02-03T02:23:07;102262.47;;;9.49;100.00
30338;BME280;17143;51.888;5.408;2023-02-03T02:38:22;102272.84;;;9.59;100.00
30338;BME280;17143;51.888;5.408;2023-02-03T02:53:30;102271.81;;;9.57;100.00
30338;BME280;17143;51.888;5.408;2023-02-03T03:08:36;102224.75;;;9.54;100.00
30338;BME280;17143;51.888;5.408;2023-02-03T03:23:43;102207.56;;;9.56;100.00
30338;BME280;17143;51.888;5.408;2023-02-03T03:38:51;102256.47;;;9.60;100.00
30338;BME280;17143;51.888;5.408;2023-02-03T03:53:58;102246.06;;;9.60;100.00
30338;BME280;17143;51.888;5.408;2023-02-03T04:09:02;102281.91;;;9.64;100.00
30338;BME280;17143;51.888;5.408;2023-02-03T04:24:05;102278.00;;;9.69;100.00
30338;BME280;17143;51.888;5.408;2023-02-03T04:39:07;102255.63;;;9.71;100.00
30338;BME280;17143;51.888;5.408;2023-02-03T04:54:09;102260.16;;;9.73;100.00
30338;BME280;17143;51.888;5.408;2023-02-03T05:09:11;102252.22;;;9.72;100.00
30338;BME280;17143;51.888;5.408;2023-02-03T05:24:13;102259.38;;;9.74;100.00
30338;BME280;17143;51.888;5.408;2023-02-03T05:39:15;102267.59;;;9.69;100.00
30338;BME280;17143;51.888;5.408;2023-02-03T05:54:17;102263.72;;;9.64;100.00
30338;BME280;17143;51.888;5.408;2023-02-03T06:09:19;102263.50;;;9.61;100.00
30338;BME280;17143;51.888;5.408;2023-02-03T06:24:21;102254.94;;;9.52;100.00
30338;BME280;17143;51.888;5.408;2023-02-03T06:39:23;102265.75;;;9.46;100.00
30338;BME280;17143;51.888;5.408;2023-02-03T06:54:25;102290.31;;;9.50;100.00
30338;BME280;17143;51.888;5.408;2023-02-03T07:09:27;102304.34;;;9.52;100.00
30338;BME280;17143;51.888;5.408;2023-02-03T07:24:29;102309.06;;;9.46;100.00
30338;BME280;17143;51.888;5.408;2023-02-03T07:39:31;102317.66;;;9.45;100.00
30338;BME280;17143;51.888;5.408;2023-02-03T07:54:33;102316.34;;;9.50;100.00
30338;BME280;17143;51.888;5.408;2023-02-03T08:09:35;102319.66;;;9.59;100.00
30338;BME280;17143;51.888;5.408;2023-02-03T08:24:38;102326.66;;;9.70;100.00
30338;BME280;17143;51.888;5.408;2023-02-03T08:39:40;102344.56;;;9.77;100.00
30338;BME280;17143;51.888;5.408;2023-02-03T08:54:42;102344.41;;;9.86;100.00
30338;BME280;17143;51.888;5.408;2023-02-03T09:09:45;102371.19;;;9.95;100.00
30338;BME280;17143;51.888;5.408;2023-02-03T09:24:47;102402.28;;;10.03;100.00
30338;BME280;17143;51.888;5.408;2023-02-03T09:39:49;102404.69;;;10.22;100.00
30338;BME280;17143;51.888;5.408;2023-02-03T09:54:55;102399.25;;;10.40;100.00
30338;BME280;17143;51.888;5.408;2023-02-03T10:10:04;102413.00;;;10.50;100.00
30338;BME280;17143;51.888;5.408;2023-02-03T10:25:17;102432.94;;;10.71;100.00
30338;BME280;17143;51.888;5.408;2023-02-03T10:40:22;102426.22;;;10.84;100.00
30338;BME280;17143;51.888;5.408;2023-02-03T10:55:30;102439.06;;;10.93;100.00
30338;BME280;17143;51.888;5.408;2023-02-03T11:10:35;102452.94;;;11.15;100.00
30338;BME280;17143;51.888;5.408;2023-02-03T11:25:37;102454.84;;;11.28;100.00
30338;BME280;17143;51.888;5.408;2023-02-03T11:40:39;102445.13;;;11.48;100.00
30338;BME280;17143;51.888;5.408;2023-02-03T11:55:49;102443.19;;;11.57;100.00
30338;BME280;17143;51.888;5.408;2023-02-03T12:11:06;102435.34;;;11.57;100.00
30338;BME280;17143;51.888;5.408;2023-02-03T12:26:17;102453.31;;;11.65;100.00
30338;BME280;17143;51.888;5.408;2023-02-03T12:41:23;102460.25;;;11.76;100.00
30338;BME280;17143;51.888;5.408;2023-02-03T12:56:30;102495.84;;;11.63;100.00
30338;BME280;17143;51.888;5.408;2023-02-03T13:11:39;102512.88;;;11.58;100.00
30338;BME280;17143;51.888;5.408;2023-02-03T13:26:54;102517.72;;;11.42;100.00
30338;BME280;17143;51.888;5.408;2023-02-03T13:42:16;102535.88;;;10.97;100.00
30338;BME280;17143;51.888;5.408;2023-02-03T13:57:21;102541.34;;;11.00;100.00
30338;BME280;17143;51.888;5.408;2023-02-03T14:12:36;102538.84;;;11.02;100.00
30338;BME280;17143;51.888;5.408;2023-02-03T14:27:39;102546.16;;;11.06;100.00
30338;BME280;17143;51.888;5.408;2023-02-03T14:58:27;102582.31;;;10.91;100.00
30338;BME280;17143;51.888;5.408;2023-02-03T15:13:30;102597.91;;;10.80;100.00
30338;BME280;17143;51.888;5.408;2023-02-03T15:28:32;102606.00;;;10.73;100.00
30338;BME280;17143;51.888;5.408;2023-02-03T15:43:37;102603.44;;;10.63;100.00
30338;BME280;17143;51.888;5.408;2023-02-03T15:58:44;102630.03;;;10.49;100.00
30338;BME280;17143;51.888;5.408;2023-02-03T16:13:47;102640.00;;;10.32;100.00
30338;BME280;17143;51.888;5.408;2023-02-03T16:29:11;102652.53;;;10.16;100.00
30338;BME280;17143;51.888;5.408;2023-02-03T16:44:14;102676.16;;;9.99;100.00
30338;BME280;17143;51.888;5.408;2023-02-03T16:59:16;102692.81;;;9.91;100.00
30338;BME280;17143;51.888;5.408;2023-02-03T17:14:18;102719.22;;;9.86;100.00
30338;BME280;17143;51.888;5.408;2023-02-03T17:29:20;102746.56;;;9.80;100.00
30338;BME280;17143;51.888;5.408;2023-02-03T17:44:23;102769.59;;;9.76;100.00
30338;BME280;17143;51.888;5.408;2023-02-03T17:59:25;102780.38;;;9.70;100.00
30338;BME280;17143;51.888;5.408;2023-02-03T18:14:27;102807.50;;;9.64;100.00
30338;BME280;17143;51.888;5.408;2023-02-03T18:29:29;102837.41;;;9.59;100.00
30338;BME280;17143;51.888;5.408;2023-02-03T18:44:31;102856.72;;;9.61;100.00
30338;BME280;17143;51.888;5.408;2023-02-03T18:59:33;102865.34;;;9.51;100.00
30338;BME280;17143;51.888;5.408;2023-02-03T19:14:35;102884.38;;;9.50;100.00
30338;BME280;17143;51.888;5.408;2023-02-03T19:29:37;102895.59;;;9.41;100.00
30338;BME280;17143;51.888;5.408;2023-02-03T19:44:39;102885.69;;;9.37;100.00
30338;BME280;17143;51.888;5.408;2023-02-03T19:59:42;102909.59;;;9.33;100.00
30338;BME280;17143;51.888;5.408;2023-02-03T20:14:44;102932.53;;;9.37;100.00
30338;BME280;17143;51.888;5.408;2023-02-03T20:29:46;102937.09;;;9.39;100.00
30338;BME280;17143;51.888;5.408;2023-02-03T20:44:48;102940.16;;;9.35;100.00
30338;BME280;17143;51.888;5.408;2023-02-03T20:59:50;102944.44;;;9.35;100.00
30338;BME280;17143;51.888;5.408;2023-02-03T21:14:52;102956.13;;;9.30;100.00
30338;BME280;17143;51.888;5.408;2023-02-03T21:29:55;102979.41;;;9.28;100.00
30338;BME280;17143;51.888;5.408;2023-02-03T21:44:57;102983.44;;;9.16;100.00
30338;BME280;17143;51.888;5.408;2023-02-03T21:59:59;102993.56;;;9.13;100.00
30338;BME280;17143;51.888;5.408;2023-02-03T22:15:01;103000.63;;;9.05;100.00
30338;BME280;17143;51.888;5.408;2023-02-03T22:30:04;103031.06;;;9.06;100.00
30338;BME280;17143;51.888;5.408;2023-02-03T22:45:07;103040.88;;;9.00;100.00
30338;BME280;17143;51.888;5.408;2023-02-03T23:00:11;103055.44;;;8.90;100.00
30338;BME280;17143;51.888;5.408;2023-02-03T23:15:13;103068.00;;;8.85;100.00
30338;BME280;17143;51.888;5.408;2023-02-03T23:30:16;103075.81;;;8.77;100.00
30338;BME280;17143;51.888;5.408;2023-02-03T23:45:18;103076.94;;;8.70;100.00
